Date,TemperatureHighF,TemperatureAvgF,TemperatureLowF,DewpointHighF,DewpointAvgF,DewpointLowF,HumidityHigh,HumidityAvg,HumidityLow,PressureMaxIn,PressureMinIn,WindSpeedMaxMPH,WindSpeedAvgMPH,GustSpeedMaxMPH,PrecipitationSumIn
2013-2-4,70,57,38,0,0,0,71,31,16,30.14,30.01,14,4,14,0.00
2013-2-5,73,57,40,0,0,0,50,29,13,30.04,29.84,28,10,28,0.00
2013-2-6,67,55,41,0,0,0,61,32,11,30.07,29.85,28,7,28,0.00
2013-2-7,68,50,37,0,0,0,52,32,8,30.07,29.81,28,11,32,0.00
2013-2-8,54,43,36,0,0,0,65,49,23,29.81,29.71,33,18,37,0.00
2013-2-9,58,45,35,0,0,0,61,39,17,30.00,29.79,22,11,24,0.00
2013-2-10,56,43,27,0,0,0,62,39,17,30.02,29.89,28,8,28,0.00
2013-2-11,52,43,32,0,0,0,45,22,10,30.22,30.02,26,8,33,0.00
2013-2-12,58,41,0,0,0,0,37,23,12,30.33,30.21,15,5,18,0.00
2013-2-13,64,46,28,0,0,0,38,24,13,30.29,30.14,15,6,17,0.00
2013-2-14,68,52,32,0,0,0,44,27,16,30.25,30.14,21,9,23,0.00
2013-2-15,69,58,42,0,0,0,34,21,11,30.33,30.25,22,9,26,0.00
2013-2-16,68,50,32,0,0,0,39,23,11,30.32,29.99,16,7,17,0.00
2013-2-17,72,56,40,0,0,0,38,21,7,29.99,29.82,18,6,21,0.00
2013-2-18,70,53,35,0,0,0,61,31,13,30.01,29.82,20,8,22,0.00
2013-2-19,57,46,37,0,0,0,79,50,22,29.84,29.53,36,19,43,0.00
2013-2-20,59,44,35,0,0,0,82,46,17,29.89,29.50,24,10,31,0.00
2013-2-21,54,41,30,0,0,0,62,36,13,30.06,29.89,22,9,30,0.00
2013-2-22,62,46,27,0,0,0,63,30,11,30.18,30.06,22,6,23,0.00
2013-2-23,45,43,42,0,0,0,42,34,25,30.08,30.02,21,12,24,0.00
2013-2-25,63,49,28,0,0,0,31,17,9,30.22,29.97,18,6,22,0.00
2013-2-26,61,47,29,0,0,0,42,20,10,30.20,30.02,22,11,24,0.00
2013-2-27,61,48,34,0,0,0,29,17,9,30.34,30.20,21,6,21,0.00
2013-2-28,68,50,29,0,0,0,27,16,8,30.41,30.32,14,5,17,0.00